createdAt,value
2018-01-14T00:00:51.376Z,99.90
2018-01-14T00:03:18.823Z,99.90
2018-01-14T00:05:46.296Z,99.90
2018-01-14T00:08:13.748Z,99.90
2018-01-14T00:10:47.352Z,99.90
2018-01-14T00:13:14.854Z,99.90
2018-01-14T00:15:42.303Z,99.90
2018-01-14T00:18:10.524Z,99.90
2018-01-14T00:20:38.745Z,99.90
2018-01-14T00:23:06.958Z,99.90
2018-01-14T00:25:34.411Z,99.90
2018-01-14T00:28:01.864Z,99.90
2018-01-14T00:30:29.312Z,99.90
2018-01-14T00:32:56.759Z,99.90
2018-01-14T00:35:24.479Z,99.90
2018-01-14T00:37:51.927Z,99.90
2018-01-14T00:40:19.380Z,99.90
2018-01-14T00:42:46.835Z,99.90
2018-01-14T00:45:14.275Z,99.90
2018-01-14T00:47:41.737Z,99.90
2018-01-14T00:50:09.189Z,99.90
2018-01-14T00:52:36.652Z,99.90
2018-01-14T00:55:04.097Z,99.90
2018-01-14T00:57:31.555Z,99.90
2018-01-14T00:59:59.010Z,99.90
2018-01-14T01:02:26.470Z,99.90
2018-01-14T01:04:53.915Z,99.90
2018-01-14T01:07:21.378Z,99.90
2018-01-14T01:09:48.824Z,99.90
2018-01-14T01:12:16.282Z,99.90
2018-01-14T01:14:43.736Z,99.90
2018-01-14T01:17:11.195Z,99.90
2018-01-14T01:19:38.646Z,99.90
2018-01-14T01:22:06.096Z,99.90
2018-01-14T01:24:33.552Z,99.90
2018-01-14T01:27:01.001Z,99.90
2018-01-14T01:29:29.223Z,99.90
2018-01-14T01:31:56.664Z,99.90
2018-01-14T01:34:24.121Z,99.90
2018-01-14T01:36:51.567Z,99.90
2018-01-14T01:39:19.034Z,99.90
2018-01-14T01:41:46.479Z,99.90
2018-01-14T01:44:13.923Z,99.90
2018-01-14T01:46:41.389Z,99.90
2018-01-14T01:49:08.835Z,99.90
2018-01-14T01:51:36.292Z,99.90
2018-01-14T01:54:03.749Z,99.90
2018-01-14T01:56:31.211Z,99.90
2018-01-14T01:58:58.656Z,99.90
2018-01-14T02:01:26.880Z,99.90
2018-01-14T02:03:54.332Z,99.90
2018-01-14T02:06:21.792Z,99.90
2018-01-14T02:08:49.236Z,99.90
2018-01-14T02:11:16.683Z,99.90
2018-01-14T02:13:44.144Z,99.90
2018-01-14T02:16:11.612Z,99.90
2018-01-14T02:18:39.068Z,99.90
2018-01-14T02:21:06.513Z,99.90
2018-01-14T02:23:33.964Z,99.90
2018-01-14T02:26:01.426Z,99.90
2018-01-14T02:28:28.871Z,99.90
2018-01-14T02:30:56.324Z,99.90
2018-01-14T02:33:23.776Z,99.90
2018-01-14T02:35:51.228Z,99.90
2018-01-14T02:38:18.688Z,99.90
2018-01-14T02:40:46.138Z,99.90
2018-01-14T02:43:14.352Z,99.90
2018-01-14T02:45:41.808Z,99.90
2018-01-14T02:48:09.256Z,99.90
2018-01-14T02:50:36.714Z,99.90
2018-01-14T02:53:04.166Z,99.90
2018-01-14T02:55:31.623Z,99.90
2018-01-14T02:57:59.068Z,99.90
2018-01-14T03:00:26.524Z,99.90
2018-01-14T03:02:53.967Z,99.90
2018-01-14T03:05:21.418Z,99.90
2018-01-14T03:07:49.099Z,99.90
2018-01-14T03:10:16.548Z,99.90
2018-01-14T03:12:44.003Z,99.90
2018-01-14T03:15:11.452Z,99.90
2018-01-14T03:17:38.914Z,99.90
2018-01-14T03:20:06.359Z,99.90
2018-01-14T03:22:34.588Z,99.90
2018-01-14T03:25:02.035Z,99.90
2018-01-14T03:27:29.484Z,99.90
2018-01-14T03:29:56.945Z,99.90
2018-01-14T03:32:24.392Z,99.90
2018-01-14T03:34:51.847Z,99.90
2018-01-14T03:37:19.293Z,99.90
2018-01-14T03:39:46.747Z,99.90
2018-01-14T03:42:14.195Z,99.90
2018-01-14T03:44:41.650Z,99.90
2018-01-14T03:47:09.105Z,99.90
2018-01-14T03:49:37.323Z,99.90
2018-01-14T03:52:05.536Z,99.90
2018-01-14T03:54:33.765Z,99.90
2018-01-14T03:57:01.216Z,99.90
2018-01-14T03:59:28.672Z,99.90
2018-01-14T04:01:56.125Z,99.90
2018-01-14T04:04:23.588Z,99.90
2018-01-14T04:06:51.040Z,99.90
2018-01-14T04:09:18.491Z,99.90
2018-01-14T04:11:45.946Z,99.90
2018-01-14T04:14:13.395Z,99.90
2018-01-14T04:16:40.852Z,99.90
2018-01-14T04:19:08.300Z,99.90
2018-01-14T04:21:35.755Z,99.90
2018-01-14T04:24:03.203Z,99.90
2018-01-14T04:26:31.423Z,99.90
2018-01-14T04:28:58.864Z,99.90
2018-01-14T04:31:26.324Z,99.90
2018-01-14T04:33:53.771Z,99.90
2018-01-14T04:36:21.290Z,99.90
2018-01-14T04:38:48.765Z,99.90
2018-01-14T04:41:16.964Z,99.90
2018-01-14T04:43:44.426Z,99.90
2018-01-14T04:46:11.896Z,99.90
2018-01-14T04:48:45.117Z,99.90
2018-01-14T04:51:12.663Z,99.90
2018-01-14T04:59:26.890Z,99.90
2018-01-14T05:01:55.122Z,99.90
2018-01-14T05:04:22.622Z,99.90
2018-01-14T05:06:50.864Z,99.90
2018-01-14T05:09:18.330Z,99.90
2018-01-14T05:11:45.798Z,99.90
2018-01-14T05:14:14.310Z,99.90
2018-01-14T05:16:41.855Z,99.90
2018-01-14T05:19:10.126Z,99.90
2018-01-14T05:21:38.400Z,99.90
2018-01-14T05:24:05.888Z,99.90
2018-01-14T05:26:33.387Z,99.90
2018-01-14T05:29:00.847Z,99.90
2018-01-14T05:31:28.497Z,99.90
2018-01-14T05:33:56.031Z,99.90
2018-01-14T05:36:23.506Z,99.90
2018-01-14T05:38:50.990Z,99.90
2018-01-14T05:41:18.487Z,99.90
2018-01-14T05:43:45.942Z,99.90
2018-01-14T05:46:13.429Z,99.90
2018-01-14T05:48:40.905Z,99.90
2018-01-14T05:51:08.354Z,99.90
2018-01-14T05:53:35.988Z,99.90
2018-01-14T05:56:03.518Z,99.90
2018-01-14T05:58:31.049Z,99.90
2018-01-14T06:00:58.569Z,99.90
2018-01-14T06:03:26.089Z,99.90
2018-01-14T06:09:05.319Z,99.90
2018-01-14T06:11:32.786Z,99.90
2018-01-14T06:14:01.113Z,99.90
2018-01-14T06:16:28.634Z,99.90
2018-01-14T06:18:56.870Z,99.90
2018-01-14T06:21:24.370Z,99.90
2018-01-14T06:23:51.862Z,99.90
2018-01-14T06:26:19.327Z,99.90
2018-01-14T06:28:46.800Z,99.90
2018-01-14T06:31:14.252Z,99.90
2018-01-14T06:33:41.741Z,99.90
2018-01-14T06:36:09.981Z,99.90
2018-01-14T06:38:38.201Z,99.90
2018-01-14T06:41:06.425Z,99.90
2018-01-14T06:43:33.887Z,99.90
2018-01-14T06:46:01.342Z,99.90
2018-01-14T06:48:28.791Z,99.90
2018-01-14T06:50:56.256Z,99.90
2018-01-14T06:53:23.730Z,99.90
2018-01-14T06:55:51.194Z,99.90
2018-01-14T06:58:18.661Z,99.90
2018-01-14T07:00:46.896Z,99.90
2018-01-14T07:03:14.415Z,99.90
2018-01-14T07:05:41.835Z,99.90
2018-01-14T07:08:09.331Z,99.90
2018-01-14T07:10:36.816Z,99.90
2018-01-14T07:13:04.384Z,99.90
2018-01-14T07:15:31.861Z,99.90
2018-01-14T07:17:59.356Z,99.90
2018-01-14T07:20:27.614Z,99.90
2018-01-14T07:22:55.868Z,99.90
2018-01-14T07:25:23.345Z,99.90
2018-01-14T07:27:50.824Z,99.90
2018-01-14T07:30:19.073Z,99.90
2018-01-14T07:32:46.561Z,99.90
2018-01-14T07:35:14.042Z,99.90
2018-01-14T07:37:41.512Z,99.90
2018-01-14T07:40:09.000Z,99.90
2018-01-14T07:42:36.477Z,99.90
2018-01-14T07:45:04.739Z,99.90
2018-01-14T07:47:32.206Z,99.90
2018-01-14T07:50:00.440Z,99.90
2018-01-14T07:52:28.664Z,99.90
2018-01-14T07:54:56.893Z,99.90
2018-01-14T07:57:24.346Z,99.90
2018-01-14T07:59:51.807Z,99.90
2018-01-14T08:02:19.277Z,99.90
2018-01-14T08:04:46.766Z,99.90
2018-01-14T08:07:14.310Z,99.90
2018-01-14T08:09:41.776Z,99.90
2018-01-14T08:12:10.019Z,99.90
2018-01-14T08:14:37.561Z,99.90
2018-01-14T08:17:05.045Z,99.90
2018-01-14T08:19:32.533Z,99.90
2018-01-14T08:22:00.773Z,99.90
2018-01-14T08:24:28.280Z,99.90
2018-01-14T08:26:55.760Z,99.90
2018-01-14T08:29:23.247Z,99.90
2018-01-14T08:31:50.731Z,99.90
2018-01-14T08:34:18.973Z,99.90
2018-01-14T08:36:46.448Z,99.90
2018-01-14T08:39:14.694Z,99.90
2018-01-14T08:41:42.160Z,99.90
2018-01-14T08:44:09.658Z,99.90
2018-01-14T08:46:37.881Z,99.90
2018-01-14T08:49:05.356Z,99.90
2018-01-14T08:51:32.837Z,99.90
2018-01-14T08:54:01.086Z,99.90
2018-01-14T08:56:28.577Z,99.90
2018-01-14T08:58:56.792Z,99.90
2018-01-14T09:01:30.687Z,99.90
2018-01-14T09:03:58.168Z,99.90
2018-01-14T09:06:25.646Z,99.90
2018-01-14T09:08:53.115Z,99.90
2018-01-14T09:11:20.640Z,99.90
2018-01-14T09:13:48.110Z,99.90
2018-01-14T09:16:15.581Z,99.90
2018-01-14T09:18:43.060Z,99.90
2018-01-14T09:21:11.306Z,99.90
2018-01-14T09:23:38.772Z,99.90
2018-01-14T09:26:06.273Z,99.90
2018-01-14T09:28:33.747Z,99.90
2018-01-14T09:31:03.062Z,99.90
2018-01-14T09:33:30.517Z,99.90
2018-01-14T09:35:58.025Z,99.90
2018-01-14T09:38:26.241Z,99.90
2018-01-14T09:40:53.693Z,99.90
2018-01-14T09:43:21.141Z,99.90
2018-01-14T09:45:48.583Z,99.90
2018-01-14T09:48:16.042Z,99.90
2018-01-14T09:50:43.520Z,99.90
2018-01-14T09:53:11.058Z,99.90
2018-01-14T09:55:38.530Z,99.90
2018-01-14T09:58:06.013Z,99.90
2018-01-14T10:00:33.500Z,99.90
2018-01-14T10:03:00.973Z,99.90
2018-01-14T10:05:29.222Z,99.90
2018-01-14T10:07:56.710Z,99.90
2018-01-14T10:10:24.964Z,99.90
2018-01-14T10:12:52.454Z,99.90
2018-01-14T10:15:19.937Z,99.90
2018-01-14T10:17:47.405Z,99.90
2018-01-14T10:20:14.868Z,99.90
2018-01-14T10:22:42.351Z,99.90
2018-01-14T10:25:10.613Z,99.90
2018-01-14T10:27:38.113Z,99.90
2018-01-14T10:30:05.613Z,99.90
2018-01-14T10:32:33.081Z,99.90
2018-01-14T10:35:00.581Z,99.90
2018-01-14T10:37:28.128Z,99.90
2018-01-14T10:39:56.430Z,99.90
2018-01-14T10:42:23.889Z,99.90
2018-01-14T10:44:51.353Z,99.90
2018-01-14T10:47:18.841Z,99.90
2018-01-14T10:49:46.307Z,99.90
2018-01-14T10:52:13.800Z,99.90
2018-01-14T10:54:42.024Z,99.90
2018-01-14T10:57:09.534Z,99.90
2018-01-14T10:59:37.033Z,99.90
2018-01-14T11:02:04.534Z,99.90
2018-01-14T11:04:32.063Z,99.90
2018-01-14T11:06:59.568Z,99.90
2018-01-14T11:09:27.094Z,99.90
2018-01-14T11:11:54.642Z,99.90
2018-01-14T11:14:22.124Z,99.90
2018-01-14T11:16:50.422Z,99.90
2018-01-14T11:19:17.962Z,99.90
2018-01-14T11:21:46.317Z,99.90
2018-01-14T11:24:13.841Z,99.90
2018-01-14T11:26:41.348Z,99.90
2018-01-14T11:29:09.649Z,99.90
2018-01-14T11:31:37.145Z,99.90
2018-01-14T11:34:04.662Z,99.90
2018-01-14T11:36:32.189Z,99.90
2018-01-14T11:39:00.482Z,99.90
2018-01-14T11:41:28.005Z,99.90
2018-01-14T11:43:55.545Z,99.90
2018-01-14T11:46:23.043Z,99.90
2018-01-14T11:48:50.560Z,99.90
2018-01-14T11:51:18.078Z,99.90
2018-01-14T11:53:46.359Z,99.90
2018-01-14T11:56:13.893Z,99.90
2018-01-14T11:58:42.200Z,99.90
2018-01-14T12:01:09.727Z,99.90
2018-01-14T12:03:38.018Z,99.90
2018-01-14T12:06:06.288Z,99.90
2018-01-14T12:08:34.581Z,99.90
2018-01-14T12:11:02.117Z,99.90
2018-01-14T12:13:30.456Z,99.90
2018-01-14T12:15:58.005Z,99.90
2018-01-14T12:18:25.542Z,99.00
2018-01-14T12:20:53.095Z,99.50
2018-01-14T12:23:20.655Z,99.40
2018-01-14T12:25:48.178Z,99.50
2018-01-14T12:28:15.716Z,99.90
2018-01-14T12:30:43.238Z,99.90
2018-01-14T12:33:10.785Z,99.90
2018-01-14T12:35:38.315Z,99.90
2018-01-14T12:38:05.829Z,99.90
2018-01-14T12:40:33.358Z,99.90
2018-01-14T12:43:00.861Z,99.90
2018-01-14T12:45:28.412Z,99.90
2018-01-14T12:47:55.922Z,99.90
2018-01-14T12:50:24.202Z,99.90
2018-01-14T12:52:52.474Z,99.90
2018-01-14T12:55:20.730Z,99.90
2018-01-14T12:57:48.269Z,99.90
2018-01-14T13:00:15.832Z,99.90
2018-01-14T13:02:43.370Z,99.90
2018-01-14T13:05:10.892Z,99.90
2018-01-14T13:07:38.401Z,99.90
2018-01-14T13:10:05.917Z,99.90
2018-01-14T13:12:33.447Z,99.90
2018-01-14T13:15:01.792Z,99.90
2018-01-14T13:17:29.347Z,99.90
2018-01-14T13:19:56.887Z,99.90
2018-01-14T13:22:24.395Z,99.80
2018-01-14T13:24:51.916Z,99.10
2018-01-14T13:27:19.462Z,97.30
2018-01-14T13:29:46.985Z,97.30
2018-01-14T13:32:15.278Z,99.70
2018-01-14T13:34:42.938Z,99.70
2018-01-14T13:37:10.501Z,99.20
2018-01-14T13:39:38.021Z,99.90
2018-01-14T13:42:05.509Z,99.90
2018-01-14T13:44:33.780Z,99.90
2018-01-14T13:47:02.037Z,99.90
2018-01-14T13:49:29.566Z,99.90
2018-01-14T13:51:57.097Z,99.60
2018-01-14T13:54:24.637Z,99.70
2018-01-14T13:56:52.146Z,99.60
2018-01-14T13:59:19.664Z,99.70
2018-01-14T14:01:47.255Z,99.80
2018-01-14T14:04:14.758Z,99.00
2018-01-14T14:06:43.058Z,99.00
2018-01-14T14:09:10.615Z,99.00
2018-01-14T14:11:38.147Z,97.70
2018-01-14T14:14:06.452Z,97.50
2018-01-14T14:16:33.945Z,97.40
2018-01-14T14:19:02.209Z,99.00
2018-01-14T14:21:30.456Z,99.60
2018-01-14T14:23:57.941Z,99.50
2018-01-14T14:26:25.404Z,97.80
2018-01-14T14:28:52.870Z,97.20
2018-01-14T14:31:20.416Z,98.10
2018-01-14T14:33:48.082Z,98.50
2018-01-14T14:36:15.557Z,97.50
2018-01-14T14:38:43.000Z,98.50
2018-01-14T14:41:10.481Z,98.10
2018-01-14T14:43:37.970Z,98.30
2018-01-14T14:46:07.853Z,97.80
2018-01-14T14:48:35.430Z,97.70
2018-01-14T14:51:03.695Z,99.90
2018-01-14T14:53:36.955Z,99.90
2018-01-14T14:58:59.755Z,99.90
2018-01-14T15:01:27.985Z,99.90
2018-01-14T15:03:58.083Z,99.90
2018-01-14T15:06:31.706Z,99.90
2018-01-14T15:13:03.400Z,99.90
2018-01-14T15:15:31.005Z,99.90
2018-01-14T15:17:59.483Z,99.90
2018-01-14T15:20:29.844Z,99.90
2018-01-14T15:23:14.936Z,99.90
2018-01-14T15:25:42.523Z,99.90
2018-01-14T15:28:10.921Z,99.90
2018-01-14T15:30:38.535Z,99.90
2018-01-14T15:33:06.105Z,99.90
2018-01-14T15:35:33.620Z,99.90
2018-01-14T15:38:01.392Z,99.90
2018-01-14T15:40:28.898Z,99.90
2018-01-14T15:42:56.416Z,99.90
2018-01-14T15:45:23.930Z,99.90
2018-01-14T15:47:52.181Z,99.90
2018-01-14T15:50:19.898Z,99.90
2018-01-14T15:56:12.347Z,99.90
2018-01-14T15:58:39.822Z,99.90
2018-01-14T16:01:07.287Z,99.90
2018-01-14T16:03:35.008Z,99.90
2018-01-14T16:06:08.645Z,99.90
2018-01-14T16:08:36.181Z,99.90
2018-01-14T16:11:03.730Z,99.90
2018-01-14T16:13:32.518Z,99.90
2018-01-14T16:16:00.079Z,99.90
2018-01-14T16:18:28.404Z,99.90
2018-01-14T16:20:55.877Z,99.90
2018-01-14T16:23:23.384Z,99.90
2018-01-14T16:25:50.880Z,99.90
2018-01-14T16:28:18.352Z,99.90
2018-01-14T16:30:46.340Z,99.90
2018-01-14T16:33:14.643Z,99.90
2018-01-14T16:35:42.328Z,99.90
2018-01-14T16:38:09.833Z,99.90
2018-01-14T16:40:37.331Z,99.90
2018-01-14T16:43:04.806Z,99.90
2018-01-14T16:45:32.369Z,99.90
2018-01-14T17:01:26.349Z,99.90
2018-01-14T17:03:57.954Z,99.90
2018-01-14T17:06:25.548Z,99.90
2018-01-14T17:08:53.039Z,99.90
2018-01-14T17:11:20.559Z,99.90
2018-01-14T17:13:48.052Z,99.90
2018-01-14T17:16:15.533Z,99.90
2018-01-14T17:18:43.824Z,99.90
2018-01-14T17:21:11.409Z,99.90
2018-01-14T17:26:31.222Z,99.90
2018-01-14T17:28:58.721Z,99.90
2018-01-14T17:31:26.247Z,99.90
2018-01-14T17:33:56.179Z,99.90
2018-01-14T17:36:23.776Z,99.90
2018-01-14T17:38:51.315Z,99.90
2018-01-14T17:41:19.785Z,99.90
2018-01-14T17:43:47.230Z,99.90
2018-01-14T17:46:14.699Z,99.90
2018-01-14T17:48:43.154Z,99.90
2018-01-14T17:51:11.651Z,99.90
2018-01-14T17:53:39.252Z,99.90
2018-01-14T17:56:06.786Z,99.90
2018-01-14T17:58:35.117Z,99.90
2018-01-14T18:01:08.939Z,99.90
2018-01-14T18:06:40.106Z,99.90
2018-01-14T18:09:07.560Z,99.90
2018-01-14T18:11:35.242Z,99.90
2018-01-14T18:14:02.676Z,99.90
2018-01-14T18:16:30.363Z,99.90
2018-01-14T18:18:58.031Z,99.90
2018-01-14T18:21:26.240Z,99.90
2018-01-14T18:23:53.923Z,99.90
2018-01-14T18:26:23.927Z,99.90
2018-01-14T18:28:51.463Z,99.90
2018-01-14T18:31:19.346Z,99.90
2018-01-14T18:33:46.781Z,99.90
2018-01-14T18:36:14.336Z,99.90
2018-01-14T18:52:14.259Z,99.90
2018-01-14T18:54:41.796Z,99.90
2018-01-14T18:57:09.416Z,99.90
2018-01-14T18:59:36.996Z,99.90
2018-01-14T19:02:05.376Z,99.90
2018-01-14T19:04:33.732Z,99.90
2018-01-14T19:07:01.280Z,99.90
2018-01-14T19:09:28.841Z,99.90
2018-01-14T19:11:56.435Z,99.90
2018-01-14T19:14:24.761Z,99.90
2018-01-14T19:16:52.196Z,99.90
2018-01-14T19:19:19.709Z,99.90
2018-01-14T19:21:47.186Z,99.90
2018-01-14T19:24:15.449Z,99.90
2018-01-14T19:26:42.950Z,99.90
2018-01-14T19:29:10.452Z,99.90
2018-01-14T19:31:37.952Z,99.90
2018-01-14T19:34:05.453Z,99.90
2018-01-14T19:36:32.957Z,99.90
2018-01-14T19:39:01.222Z,99.90
2018-01-14T19:41:28.701Z,99.90
2018-01-14T19:43:56.187Z,99.90
2018-01-14T19:46:23.669Z,99.90
2018-01-14T19:48:51.157Z,99.90
2018-01-14T19:51:19.415Z,99.90
2018-01-14T19:53:46.897Z,99.90
2018-01-14T19:56:15.156Z,99.90
2018-01-14T19:58:42.596Z,99.90
2018-01-14T20:01:10.090Z,99.90
2018-01-14T20:03:38.337Z,99.90
2018-01-14T20:06:06.597Z,99.90
2018-01-14T20:08:34.097Z,99.90
2018-01-14T20:11:02.348Z,99.90
2018-01-14T20:13:29.836Z,99.90
2018-01-14T20:15:57.331Z,99.90
2018-01-14T20:18:24.787Z,99.90
2018-01-14T20:20:52.302Z,99.90
2018-01-14T20:23:19.794Z,99.90
2018-01-14T20:25:47.282Z,99.90
2018-01-14T20:28:14.865Z,99.90
2018-01-14T20:30:43.182Z,99.90
2018-01-14T20:33:10.664Z,99.90
2018-01-14T20:35:38.103Z,99.90
2018-01-14T20:38:05.612Z,99.90
2018-01-14T20:40:33.867Z,99.90
2018-01-14T20:43:01.366Z,99.90
2018-01-14T20:45:28.804Z,99.90
2018-01-14T20:47:57.069Z,99.90
2018-01-14T20:50:24.561Z,99.90
2018-01-14T20:52:52.001Z,99.90
2018-01-14T20:55:19.506Z,99.90
2018-01-14T20:57:47.003Z,99.90
2018-01-14T21:00:15.278Z,99.90
2018-01-14T21:02:42.754Z,99.90
2018-01-14T21:05:11.005Z,99.90
2018-01-14T21:07:38.490Z,99.90
2018-01-14T21:10:05.936Z,99.90
2018-01-14T21:12:33.566Z,99.90
2018-01-14T21:15:01.052Z,99.90
2018-01-14T21:17:29.406Z,99.90
2018-01-14T21:19:56.894Z,99.90
2018-01-14T21:22:25.149Z,99.90
2018-01-14T21:24:52.642Z,99.90
2018-01-14T21:27:20.139Z,99.90
2018-01-14T21:29:47.626Z,99.90
2018-01-14T21:32:15.101Z,99.90
2018-01-14T21:34:42.589Z,99.90
2018-01-14T21:37:10.104Z,99.90
2018-01-14T21:39:38.351Z,99.90
2018-01-14T21:42:06.011Z,99.90
2018-01-14T21:44:33.505Z,99.90
2018-01-14T21:47:01.793Z,99.90
2018-01-14T21:49:29.275Z,99.90
2018-01-14T21:51:56.759Z,99.90
2018-01-14T21:54:24.280Z,99.90
2018-01-14T21:56:51.776Z,99.90
2018-01-14T21:59:19.277Z,99.90
2018-01-14T22:01:47.526Z,99.90
2018-01-14T22:04:15.011Z,99.90
2018-01-14T22:06:42.456Z,99.90
2018-01-14T22:09:09.920Z,99.90
2018-01-14T22:11:37.417Z,99.90
2018-01-14T22:14:04.893Z,99.90
2018-01-14T22:16:32.455Z,99.90
2018-01-14T22:18:59.894Z,99.90
2018-01-14T22:21:27.397Z,99.90
2018-01-14T22:23:55.647Z,99.90
2018-01-14T22:26:23.236Z,99.90
2018-01-14T22:28:51.526Z,99.90
2018-01-14T22:31:19.091Z,99.90
2018-01-14T22:33:46.597Z,99.90
2018-01-14T22:36:14.138Z,99.90
2018-01-14T22:38:41.576Z,99.90
2018-01-14T22:41:09.020Z,99.90
2018-01-14T22:43:36.609Z,99.90
2018-01-14T22:46:04.044Z,99.90
2018-01-14T22:48:31.504Z,99.90
2018-01-14T22:50:58.956Z,99.90
2018-01-14T22:53:26.416Z,99.90
2018-01-14T22:55:53.869Z,99.90
2018-01-14T22:58:21.323Z,99.90
2018-01-14T23:00:48.767Z,99.90
2018-01-14T23:03:16.240Z,99.90
2018-01-14T23:05:43.680Z,99.90
2018-01-14T23:10:44.927Z,99.90
2018-01-14T23:13:12.376Z,99.90
2018-01-14T23:15:40.637Z,99.90
2018-01-14T23:18:08.071Z,99.90
2018-01-14T23:20:35.529Z,99.90
2018-01-14T23:23:07.554Z,99.90
2018-01-14T23:25:35.001Z,99.90
2018-01-14T23:28:02.453Z,99.90
2018-01-14T23:30:30.671Z,99.90
2018-01-14T23:32:58.116Z,99.90
2018-01-14T23:35:25.564Z,99.90
2018-01-14T23:37:53.023Z,99.90
2018-01-14T23:40:20.467Z,99.90
2018-01-14T23:42:47.919Z,99.90
2018-01-14T23:45:15.364Z,99.90
2018-01-14T23:47:43.589Z,99.90
2018-01-14T23:50:11.044Z,99.90
2018-01-14T23:52:38.504Z,99.90
2018-01-14T23:55:05.955Z,99.90
2018-01-14T23:57:34.174Z,99.90
